Archival Weather

Heathrow

London, United Kingdom (EGLL)

Report from: Friday, September 23, 2022 12:50 PM BST
Current time: Tuesday, July 16, 2024 5:08 PM BST

Current weather – Weather history – Daily summaries
Weather forecast

Temperature17.0°C (62.6°F)
Dew point12.0°C (53.6°F)
Winds 6 kts (3.1 m/s, 6.9 mph) Vrb
Winds variableWinds variable from Northwest (320°) to East-Northeast (60°)
Visibility6.2 mi. (10 km)
Clouds Ceiling: Broken clouds 2,000 ft. (610 m)
Broken clouds 2,500 ft. (762 m)
Overcast 4,700 ft. (1,433 m)
Altimeter29.97 in.Hg (1015 mB)
Relative humidity72 %
Density altitude373 ft. (114 m)
Remarks Fully automated report
Corrected report
No significant changes expected in the next two hours
Flight conditions Marginal Visual Meteorological Conditions
Raw dataCOR EGLL 231150Z AUTO 02006KT 320V060 9999 BKN020 BKN025 OVC047 17/12 Q1015 NOSIG
An error has occurred. This application may no longer respond until reloaded. Reload 🗙